sensor_id;sensor_type;location;lat;lon;timestamp;P1;durP1;ratioP1;P2;durP2;ratioP2
17921;SDS011;9086;50.966;3.144;2023-01-28T00:01:12;11.60;;;9.90;;
17921;SDS011;9086;50.966;3.144;2023-01-28T00:03:38;12.77;;;11.10;;
17921;SDS011;9086;50.966;3.144;2023-01-28T00:06:06;12.43;;;10.87;;
17921;SDS011;9086;50.966;3.144;2023-01-28T00:08:33;12.03;;;10.57;;
17921;SDS011;9086;50.966;3.144;2023-01-28T00:10:59;12.40;;;11.10;;
17921;SDS011;9086;50.966;3.144;2023-01-28T00:13:25;13.10;;;11.23;;
17921;SDS011;9086;50.966;3.144;2023-01-28T00:15:55;13.87;;;10.77;;
17921;SDS011;9086;50.966;3.144;2023-01-28T00:18:21;13.93;;;11.27;;
17921;SDS011;9086;50.966;3.144;2023-01-28T00:20:58;12.70;;;9.77;;
17921;SDS011;9086;50.966;3.144;2023-01-28T00:23:25;13.00;;;11.00;;
17921;SDS011;9086;50.966;3.144;2023-01-28T00:25:52;11.43;;;10.20;;
17921;SDS011;9086;50.966;3.144;2023-01-28T00:28:19;12.70;;;10.37;;
17921;SDS011;9086;50.966;3.144;2023-01-28T00:30:45;12.13;;;10.83;;
17921;SDS011;9086;50.966;3.144;2023-01-28T00:33:11;12.93;;;10.67;;
17921;SDS011;9086;50.966;3.144;2023-01-28T00:35:37;13.57;;;10.30;;
17921;SDS011;9086;50.966;3.144;2023-01-28T00:38:03;13.17;;;10.97;;
17921;SDS011;9086;50.966;3.144;2023-01-28T00:40:30;13.20;;;10.43;;
17921;SDS011;9086;50.966;3.144;2023-01-28T00:42:56;10.93;;;9.50;;
17921;SDS011;9086;50.966;3.144;2023-01-28T00:45:22;12.33;;;10.10;;
17921;SDS011;9086;50.966;3.144;2023-01-28T00:47:48;11.60;;;9.93;;
17921;SDS011;9086;50.966;3.144;2023-01-28T00:50:14;10.40;;;9.30;;
17921;SDS011;9086;50.966;3.144;2023-01-28T00:52:40;11.07;;;9.43;;
17921;SDS011;9086;50.966;3.144;2023-01-28T00:55:06;9.40;;;8.30;;
17921;SDS011;9086;50.966;3.144;2023-01-28T00:57:32;12.10;;;10.10;;
17921;SDS011;9086;50.966;3.144;2023-01-28T00:59:58;11.93;;;9.33;;
17921;SDS011;9086;50.966;3.144;2023-01-28T01:02:24;11.27;;;8.97;;
17921;SDS011;9086;50.966;3.144;2023-01-28T01:04:51;12.43;;;9.57;;
17921;SDS011;9086;50.966;3.144;2023-01-28T01:07:23;9.37;;;8.43;;
17921;SDS011;9086;50.966;3.144;2023-01-28T01:10:10;10.50;;;9.20;;
17921;SDS011;9086;50.966;3.144;2023-01-28T01:12:36;9.97;;;8.07;;
17921;SDS011;9086;50.966;3.144;2023-01-28T01:15:03;9.83;;;8.73;;
17921;SDS011;9086;50.966;3.144;2023-01-28T01:17:35;10.07;;;8.50;;
17921;SDS011;9086;50.966;3.144;2023-01-28T01:20:02;8.90;;;7.87;;
17921;SDS011;9086;50.966;3.144;2023-01-28T01:22:28;10.07;;;8.77;;
17921;SDS011;9086;50.966;3.144;2023-01-28T01:24:55;9.57;;;8.53;;
17921;SDS011;9086;50.966;3.144;2023-01-28T01:27:21;8.87;;;7.97;;
17921;SDS011;9086;50.966;3.144;2023-01-28T01:29:47;10.00;;;8.20;;
17921;SDS011;9086;50.966;3.144;2023-01-28T01:32:13;10.00;;;8.90;;
17921;SDS011;9086;50.966;3.144;2023-01-28T01:34:39;9.43;;;8.37;;
17921;SDS011;9086;50.966;3.144;2023-01-28T01:37:05;11.13;;;8.00;;
17921;SDS011;9086;50.966;3.144;2023-01-28T01:39:32;9.93;;;8.30;;
17921;SDS011;9086;50.966;3.144;2023-01-28T01:41:58;8.97;;;7.83;;
17921;SDS011;9086;50.966;3.144;2023-01-28T01:47:10;9.20;;;7.43;;
17921;SDS011;9086;50.966;3.144;2023-01-28T01:49:36;9.03;;;8.10;;
17921;SDS011;9086;50.966;3.144;2023-01-28T01:52:05;10.37;;;8.77;;
17921;SDS011;9086;50.966;3.144;2023-01-28T01:54:32;9.27;;;7.80;;
17921;SDS011;9086;50.966;3.144;2023-01-28T01:56:58;9.27;;;8.03;;
17921;SDS011;9086;50.966;3.144;2023-01-28T01:59:27;11.50;;;8.93;;
17921;SDS011;9086;50.966;3.144;2023-01-28T02:01:53;10.53;;;8.80;;
17921;SDS011;9086;50.966;3.144;2023-01-28T02:07:15;9.03;;;8.13;;
17921;SDS011;9086;50.966;3.144;2023-01-28T02:09:42;9.63;;;8.53;;
17921;SDS011;9086;50.966;3.144;2023-01-28T02:12:10;11.37;;;8.47;;
17921;SDS011;9086;50.966;3.144;2023-01-28T02:14:39;11.37;;;8.90;;
17921;SDS011;9086;50.966;3.144;2023-01-28T02:17:07;9.63;;;8.63;;
17921;SDS011;9086;50.966;3.144;2023-01-28T02:19:37;10.73;;;9.27;;
17921;SDS011;9086;50.966;3.144;2023-01-28T02:24:41;12.07;;;10.17;;
17921;SDS011;9086;50.966;3.144;2023-01-28T02:27:26;11.13;;;9.50;;
17921;SDS011;9086;50.966;3.144;2023-01-28T02:29:55;11.43;;;9.80;;
17921;SDS011;9086;50.966;3.144;2023-01-28T02:32:33;10.97;;;9.50;;
17921;SDS011;9086;50.966;3.144;2023-01-28T02:35:11;11.83;;;10.50;;
17921;SDS011;9086;50.966;3.144;2023-01-28T02:40:09;12.13;;;10.33;;
17921;SDS011;9086;50.966;3.144;2023-01-28T02:42:36;11.50;;;10.07;;
17921;SDS011;9086;50.966;3.144;2023-01-28T02:45:06;12.33;;;11.00;;
17921;SDS011;9086;50.966;3.144;2023-01-28T02:47:36;10.40;;;9.03;;
17921;SDS011;9086;50.966;3.144;2023-01-28T02:50:20;14.50;;;10.37;;
17921;SDS011;9086;50.966;3.144;2023-01-28T02:55:37;12.83;;;10.57;;
17921;SDS011;9086;50.966;3.144;2023-01-28T03:00:38;13.83;;;10.93;;
17921;SDS011;9086;50.966;3.144;2023-01-28T03:05:34;12.37;;;10.30;;
17921;SDS011;9086;50.966;3.144;2023-01-28T03:08:02;13.57;;;11.43;;
17921;SDS011;9086;50.966;3.144;2023-01-28T03:10:49;11.67;;;10.37;;
17921;SDS011;9086;50.966;3.144;2023-01-28T03:13:34;12.70;;;10.73;;
17921;SDS011;9086;50.966;3.144;2023-01-28T03:16:20;13.67;;;11.23;;
17921;SDS011;9086;50.966;3.144;2023-01-28T03:19:05;12.17;;;10.70;;
17921;SDS011;9086;50.966;3.144;2023-01-28T03:21:50;14.47;;;11.87;;
17921;SDS011;9086;50.966;3.144;2023-01-28T03:24:40;14.17;;;11.27;;
17921;SDS011;9086;50.966;3.144;2023-01-28T03:27:27;12.07;;;10.53;;
17921;SDS011;9086;50.966;3.144;2023-01-28T03:30:16;12.83;;;10.97;;
17921;SDS011;9086;50.966;3.144;2023-01-28T03:33:02;14.13;;;11.57;;
17921;SDS011;9086;50.966;3.144;2023-01-28T03:35:47;12.67;;;10.63;;
17921;SDS011;9086;50.966;3.144;2023-01-28T03:38:32;13.90;;;10.77;;
17921;SDS011;9086;50.966;3.144;2023-01-28T03:41:06;11.80;;;10.10;;
17921;SDS011;9086;50.966;3.144;2023-01-28T03:43:32;11.80;;;10.07;;
17921;SDS011;9086;50.966;3.144;2023-01-28T03:45:59;11.53;;;9.97;;
17921;SDS011;9086;50.966;3.144;2023-01-28T03:48:25;11.70;;;9.83;;
17921;SDS011;9086;50.966;3.144;2023-01-28T03:50:52;12.47;;;10.50;;
17921;SDS011;9086;50.966;3.144;2023-01-28T03:53:19;13.43;;;10.50;;
17921;SDS011;9086;50.966;3.144;2023-01-28T03:55:46;13.67;;;11.37;;
17921;SDS011;9086;50.966;3.144;2023-01-28T03:58:13;13.10;;;10.30;;
17921;SDS011;9086;50.966;3.144;2023-01-28T04:00:39;11.77;;;10.47;;
17921;SDS011;9086;50.966;3.144;2023-01-28T04:03:07;12.93;;;10.23;;
17921;SDS011;9086;50.966;3.144;2023-01-28T04:05:41;13.07;;;11.23;;
17921;SDS011;9086;50.966;3.144;2023-01-28T04:08:07;13.60;;;11.73;;
17921;SDS011;9086;50.966;3.144;2023-01-28T04:10:33;13.03;;;10.93;;
17921;SDS011;9086;50.966;3.144;2023-01-28T04:12:58;15.17;;;11.17;;
17921;SDS011;9086;50.966;3.144;2023-01-28T04:15:25;13.03;;;10.97;;
17921;SDS011;9086;50.966;3.144;2023-01-28T04:17:51;13.50;;;11.17;;
17921;SDS011;9086;50.966;3.144;2023-01-28T04:20:17;14.03;;;11.63;;
17921;SDS011;9086;50.966;3.144;2023-01-28T04:22:43;11.93;;;10.33;;
17921;SDS011;9086;50.966;3.144;2023-01-28T04:25:09;13.93;;;12.43;;
17921;SDS011;9086;50.966;3.144;2023-01-28T04:27:35;13.37;;;10.87;;
17921;SDS011;9086;50.966;3.144;2023-01-28T04:30:01;14.30;;;11.80;;
17921;SDS011;9086;50.966;3.144;2023-01-28T04:32:27;12.90;;;11.47;;
17921;SDS011;9086;50.966;3.144;2023-01-28T04:34:53;13.00;;;11.13;;
17921;SDS011;9086;50.966;3.144;2023-01-28T04:37:19;13.07;;;11.63;;
17921;SDS011;9086;50.966;3.144;2023-01-28T04:39:45;14.43;;;11.73;;
17921;SDS011;9086;50.966;3.144;2023-01-28T04:42:11;13.93;;;12.00;;
17921;SDS011;9086;50.966;3.144;2023-01-28T04:44:37;12.90;;;11.50;;
17921;SDS011;9086;50.966;3.144;2023-01-28T04:47:03;14.07;;;12.50;;
17921;SDS011;9086;50.966;3.144;2023-01-28T04:49:29;15.03;;;12.53;;
17921;SDS011;9086;50.966;3.144;2023-01-28T04:51:55;17.20;;;13.90;;
17921;SDS011;9086;50.966;3.144;2023-01-28T04:54:21;14.63;;;12.13;;
17921;SDS011;9086;50.966;3.144;2023-01-28T04:56:47;15.30;;;13.40;;
17921;SDS011;9086;50.966;3.144;2023-01-28T04:59:13;15.67;;;13.07;;
17921;SDS011;9086;50.966;3.144;2023-01-28T05:01:39;16.67;;;12.90;;
17921;SDS011;9086;50.966;3.144;2023-01-28T05:04:05;14.90;;;12.37;;
17921;SDS011;9086;50.966;3.144;2023-01-28T05:06:31;15.43;;;13.53;;
17921;SDS011;9086;50.966;3.144;2023-01-28T05:08:57;13.67;;;12.10;;
17921;SDS011;9086;50.966;3.144;2023-01-28T05:11:23;14.03;;;12.37;;
17921;SDS011;9086;50.966;3.144;2023-01-28T05:13:49;14.27;;;11.73;;
17921;SDS011;9086;50.966;3.144;2023-01-28T05:16:16;16.47;;;14.47;;
17921;SDS011;9086;50.966;3.144;2023-01-28T05:18:42;15.57;;;13.87;;
17921;SDS011;9086;50.966;3.144;2023-01-28T05:21:08;15.93;;;13.57;;
17921;SDS011;9086;50.966;3.144;2023-01-28T05:23:34;14.23;;;12.73;;
17921;SDS011;9086;50.966;3.144;2023-01-28T05:26:00;15.10;;;12.87;;
17921;SDS011;9086;50.966;3.144;2023-01-28T05:28:26;14.53;;;12.77;;
17921;SDS011;9086;50.966;3.144;2023-01-28T05:30:53;15.23;;;12.93;;
17921;SDS011;9086;50.966;3.144;2023-01-28T05:33:19;15.87;;;13.53;;
17921;SDS011;9086;50.966;3.144;2023-01-28T05:35:45;15.23;;;13.20;;
17921;SDS011;9086;50.966;3.144;2023-01-28T05:38:11;16.50;;;14.30;;
17921;SDS011;9086;50.966;3.144;2023-01-28T05:40:37;17.80;;;14.67;;
17921;SDS011;9086;50.966;3.144;2023-01-28T05:43:03;17.53;;;14.77;;
17921;SDS011;9086;50.966;3.144;2023-01-28T05:45:29;17.10;;;14.10;;
17921;SDS011;9086;50.966;3.144;2023-01-28T05:47:55;17.17;;;14.30;;
17921;SDS011;9086;50.966;3.144;2023-01-28T05:50:21;16.97;;;13.90;;
17921;SDS011;9086;50.966;3.144;2023-01-28T05:52:47;18.77;;;15.37;;
17921;SDS011;9086;50.966;3.144;2023-01-28T05:55:13;19.43;;;16.17;;
17921;SDS011;9086;50.966;3.144;2023-01-28T05:57:39;21.80;;;17.87;;
17921;SDS011;9086;50.966;3.144;2023-01-28T06:00:05;18.10;;;16.20;;
17921;SDS011;9086;50.966;3.144;2023-01-28T06:02:31;17.40;;;14.37;;
17921;SDS011;9086;50.966;3.144;2023-01-28T06:04:57;16.67;;;14.17;;
17921;SDS011;9086;50.966;3.144;2023-01-28T06:07:23;17.53;;;14.20;;
17921;SDS011;9086;50.966;3.144;2023-01-28T06:09:49;18.00;;;14.37;;
17921;SDS011;9086;50.966;3.144;2023-01-28T06:12:15;16.37;;;13.93;;
17921;SDS011;9086;50.966;3.144;2023-01-28T06:14:41;16.13;;;14.00;;
17921;SDS011;9086;50.966;3.144;2023-01-28T06:17:07;15.73;;;13.57;;
17921;SDS011;9086;50.966;3.144;2023-01-28T06:19:33;17.23;;;13.50;;
17921;SDS011;9086;50.966;3.144;2023-01-28T06:21:59;17.27;;;13.50;;
17921;SDS011;9086;50.966;3.144;2023-01-28T06:24:25;18.60;;;14.33;;
17921;SDS011;9086;50.966;3.144;2023-01-28T06:26:51;17.63;;;14.23;;
17921;SDS011;9086;50.966;3.144;2023-01-28T06:29:17;19.80;;;14.80;;
17921;SDS011;9086;50.966;3.144;2023-01-28T06:31:43;19.23;;;16.13;;
17921;SDS011;9086;50.966;3.144;2023-01-28T06:34:09;18.83;;;15.83;;
17921;SDS011;9086;50.966;3.144;2023-01-28T06:36:35;18.77;;;14.67;;
17921;SDS011;9086;50.966;3.144;2023-01-28T06:39:04;18.07;;;14.77;;
17921;SDS011;9086;50.966;3.144;2023-01-28T06:41:30;17.70;;;14.97;;
17921;SDS011;9086;50.966;3.144;2023-01-28T06:43:56;18.43;;;14.20;;
17921;SDS011;9086;50.966;3.144;2023-01-28T06:46:22;19.57;;;15.30;;
17921;SDS011;9086;50.966;3.144;2023-01-28T06:48:48;20.23;;;15.97;;
17921;SDS011;9086;50.966;3.144;2023-01-28T06:51:14;19.33;;;15.47;;
17921;SDS011;9086;50.966;3.144;2023-01-28T06:53:40;19.70;;;16.10;;
17921;SDS011;9086;50.966;3.144;2023-01-28T06:56:06;19.93;;;15.33;;
17921;SDS011;9086;50.966;3.144;2023-01-28T06:58:33;20.03;;;15.17;;
17921;SDS011;9086;50.966;3.144;2023-01-28T07:00:59;20.17;;;17.20;;
17921;SDS011;9086;50.966;3.144;2023-01-28T07:03:25;20.90;;;16.90;;
17921;SDS011;9086;50.966;3.144;2023-01-28T07:05:51;20.70;;;16.67;;
17921;SDS011;9086;50.966;3.144;2023-01-28T07:08:18;20.90;;;16.73;;
17921;SDS011;9086;50.966;3.144;2023-01-28T07:10:44;20.30;;;15.17;;
17921;SDS011;9086;50.966;3.144;2023-01-28T07:13:10;20.87;;;16.87;;
17921;SDS011;9086;50.966;3.144;2023-01-28T07:15:36;19.57;;;16.10;;
17921;SDS011;9086;50.966;3.144;2023-01-28T07:18:02;19.23;;;15.73;;
17921;SDS011;9086;50.966;3.144;2023-01-28T07:20:28;17.60;;;15.37;;
17921;SDS011;9086;50.966;3.144;2023-01-28T07:22:54;18.53;;;15.93;;
17921;SDS011;9086;50.966;3.144;2023-01-28T07:25:20;20.23;;;16.00;;
17921;SDS011;9086;50.966;3.144;2023-01-28T07:27:48;18.90;;;15.80;;
17921;SDS011;9086;50.966;3.144;2023-01-28T07:30:14;17.80;;;15.07;;
17921;SDS011;9086;50.966;3.144;2023-01-28T07:32:41;21.30;;;16.60;;
17921;SDS011;9086;50.966;3.144;2023-01-28T07:35:07;18.37;;;16.27;;
17921;SDS011;9086;50.966;3.144;2023-01-28T07:37:33;21.00;;;16.30;;
17921;SDS011;9086;50.966;3.144;2023-01-28T07:39:59;21.10;;;16.47;;
17921;SDS011;9086;50.966;3.144;2023-01-28T07:42:25;17.70;;;15.80;;
17921;SDS011;9086;50.966;3.144;2023-01-28T07:44:51;20.17;;;16.30;;
17921;SDS011;9086;50.966;3.144;2023-01-28T07:47:17;21.00;;;16.20;;
17921;SDS011;9086;50.966;3.144;2023-01-28T07:49:43;19.37;;;17.10;;
17921;SDS011;9086;50.966;3.144;2023-01-28T07:52:09;19.93;;;17.00;;
17921;SDS011;9086;50.966;3.144;2023-01-28T07:54:35;18.80;;;15.07;;
17921;SDS011;9086;50.966;3.144;2023-01-28T07:57:01;22.40;;;16.87;;
17921;SDS011;9086;50.966;3.144;2023-01-28T07:59:30;19.50;;;15.60;;
17921;SDS011;9086;50.966;3.144;2023-01-28T08:01:56;18.80;;;16.03;;
17921;SDS011;9086;50.966;3.144;2023-01-28T08:04:21;19.03;;;15.83;;
17921;SDS011;9086;50.966;3.144;2023-01-28T08:06:47;19.63;;;15.80;;
17921;SDS011;9086;50.966;3.144;2023-01-28T08:09:16;18.20;;;16.23;;
17921;SDS011;9086;50.966;3.144;2023-01-28T08:11:42;19.00;;;16.03;;
17921;SDS011;9086;50.966;3.144;2023-01-28T08:14:09;19.73;;;15.87;;
17921;SDS011;9086;50.966;3.144;2023-01-28T08:16:35;18.17;;;15.33;;
17921;SDS011;9086;50.966;3.144;2023-01-28T08:19:01;18.70;;;15.63;;
17921;SDS011;9086;50.966;3.144;2023-01-28T08:21:27;18.73;;;16.70;;
17921;SDS011;9086;50.966;3.144;2023-01-28T08:23:53;19.83;;;15.77;;
17921;SDS011;9086;50.966;3.144;2023-01-28T08:26:20;20.53;;;16.50;;
17921;SDS011;9086;50.966;3.144;2023-01-28T08:28:47;21.90;;;16.77;;
17921;SDS011;9086;50.966;3.144;2023-01-28T08:31:13;19.00;;;16.80;;
17921;SDS011;9086;50.966;3.144;2023-01-28T08:33:39;19.83;;;16.50;;
17921;SDS011;9086;50.966;3.144;2023-01-28T08:36:05;19.33;;;16.30;;
17921;SDS011;9086;50.966;3.144;2023-01-28T08:38:31;21.37;;;16.40;;
17921;SDS011;9086;50.966;3.144;2023-01-28T08:40:57;21.67;;;17.60;;
17921;SDS011;9086;50.966;3.144;2023-01-28T08:43:24;19.93;;;16.87;;
17921;SDS011;9086;50.966;3.144;2023-01-28T08:45:50;18.23;;;16.23;;
17921;SDS011;9086;50.966;3.144;2023-01-28T08:48:16;19.10;;;16.17;;
17921;SDS011;9086;50.966;3.144;2023-01-28T08:50:43;20.80;;;16.80;;
17921;SDS011;9086;50.966;3.144;2023-01-28T08:53:13;16.47;;;14.43;;
17921;SDS011;9086;50.966;3.144;2023-01-28T08:55:39;16.00;;;13.80;;
17921;SDS011;9086;50.966;3.144;2023-01-28T08:58:06;22.17;;;14.80;;
17921;SDS011;9086;50.966;3.144;2023-01-28T09:00:33;19.30;;;14.97;;
17921;SDS011;9086;50.966;3.144;2023-01-28T09:02:59;17.33;;;14.93;;
17921;SDS011;9086;50.966;3.144;2023-01-28T09:05:25;17.83;;;15.50;;
17921;SDS011;9086;50.966;3.144;2023-01-28T09:07:51;18.57;;;16.57;;
17921;SDS011;9086;50.966;3.144;2023-01-28T09:10:17;18.53;;;16.33;;
17921;SDS011;9086;50.966;3.144;2023-01-28T09:12:46;20.33;;;16.57;;
17921;SDS011;9086;50.966;3.144;2023-01-28T09:15:13;18.73;;;15.43;;
17921;SDS011;9086;50.966;3.144;2023-01-28T09:17:39;18.73;;;15.27;;
17921;SDS011;9086;50.966;3.144;2023-01-28T09:20:05;17.83;;;14.53;;
17921;SDS011;9086;50.966;3.144;2023-01-28T09:22:32;23.00;;;16.17;;
17921;SDS011;9086;50.966;3.144;2023-01-28T09:24:58;18.60;;;15.37;;
17921;SDS011;9086;50.966;3.144;2023-01-28T09:27:24;19.20;;;16.20;;
17921;SDS011;9086;50.966;3.144;2023-01-28T09:29:50;21.13;;;15.97;;
17921;SDS011;9086;50.966;3.144;2023-01-28T09:32:16;18.47;;;15.20;;
17921;SDS011;9086;50.966;3.144;2023-01-28T09:34:42;17.23;;;15.07;;
17921;SDS011;9086;50.966;3.144;2023-01-28T09:37:08;16.17;;;14.43;;
17921;SDS011;9086;50.966;3.144;2023-01-28T09:39:35;17.47;;;14.90;;
17921;SDS011;9086;50.966;3.144;2023-01-28T09:42:50;17.60;;;14.50;;
17921;SDS011;9086;50.966;3.144;2023-01-28T09:53:06;18.77;;;15.63;;
17921;SDS011;9086;50.966;3.144;2023-01-28T09:55:37;17.47;;;14.87;;
17921;SDS011;9086;50.966;3.144;2023-01-28T09:58:05;16.03;;;14.07;;
17921;SDS011;9086;50.966;3.144;2023-01-28T10:00:34;16.83;;;15.03;;
17921;SDS011;9086;50.966;3.144;2023-01-28T10:08:21;18.53;;;14.83;;
17921;SDS011;9086;50.966;3.144;2023-01-28T10:13:26;17.13;;;14.77;;
17921;SDS011;9086;50.966;3.144;2023-01-28T10:19:02;22.67;;;17.07;;
17921;SDS011;9086;50.966;3.144;2023-01-28T10:21:14;16.93;;;14.90;;
17921;SDS011;9086;50.966;3.144;2023-01-28T10:26:24;16.00;;;13.20;;
17921;SDS011;9086;50.966;3.144;2023-01-28T10:28:54;20.20;;;12.77;;
17921;SDS011;9086;50.966;3.144;2023-01-28T10:31:22;16.63;;;13.07;;
17921;SDS011;9086;50.966;3.144;2023-01-28T10:33:49;16.50;;;13.50;;
17921;SDS011;9086;50.966;3.144;2023-01-28T10:36:15;17.83;;;12.50;;
17921;SDS011;9086;50.966;3.144;2023-01-28T10:38:42;16.00;;;13.87;;
17921;SDS011;9086;50.966;3.144;2023-01-28T10:41:08;15.20;;;13.40;;
17921;SDS011;9086;50.966;3.144;2023-01-28T10:43:36;19.27;;;14.30;;
17921;SDS011;9086;50.966;3.144;2023-01-28T10:48:31;17.80;;;14.43;;
17921;SDS011;9086;50.966;3.144;2023-01-28T10:50:59;16.27;;;13.63;;
17921;SDS011;9086;50.966;3.144;2023-01-28T10:53:38;17.47;;;14.80;;
17921;SDS011;9086;50.966;3.144;2023-01-28T10:56:15;17.80;;;14.33;;
17921;SDS011;9086;50.966;3.144;2023-01-28T11:01:23;13.67;;;12.10;;
17921;SDS011;9086;50.966;3.144;2023-01-28T11:03:57;15.33;;;13.10;;
17921;SDS011;9086;50.966;3.144;2023-01-28T11:06:24;15.30;;;11.87;;
17921;SDS011;9086;50.966;3.144;2023-01-28T11:08:51;15.23;;;12.60;;
17921;SDS011;9086;50.966;3.144;2023-01-28T11:11:21;13.00;;;10.97;;
17921;SDS011;9086;50.966;3.144;2023-01-28T11:13:49;10.37;;;8.70;;
17921;SDS011;9086;50.966;3.144;2023-01-28T11:16:16;11.03;;;9.77;;
17921;SDS011;9086;50.966;3.144;2023-01-28T11:19:02;12.53;;;9.97;;
17921;SDS011;9086;50.966;3.144;2023-01-28T11:21:30;11.57;;;10.17;;
17921;SDS011;9086;50.966;3.144;2023-01-28T11:26:29;12.93;;;10.33;;
17921;SDS011;9086;50.966;3.144;2023-01-28T11:28:57;9.43;;;8.13;;
17921;SDS011;9086;50.966;3.144;2023-01-28T11:31:23;13.27;;;9.40;;
17921;SDS011;9086;50.966;3.144;2023-01-28T11:36:21;9.97;;;8.80;;
17921;SDS011;9086;50.966;3.144;2023-01-28T11:38:54;12.47;;;8.40;;
17921;SDS011;9086;50.966;3.144;2023-01-28T11:41:31;11.33;;;9.13;;
17921;SDS011;9086;50.966;3.144;2023-01-28T11:43:57;11.10;;;9.40;;
17921;SDS011;9086;50.966;3.144;2023-01-28T11:59:27;12.97;;;10.50;;
17921;SDS011;9086;50.966;3.144;2023-01-28T12:04:55;13.97;;;10.53;;
17921;SDS011;9086;50.966;3.144;2023-01-28T12:12:42;11.70;;;9.87;;
17921;SDS011;9086;50.966;3.144;2023-01-28T12:20:17;10.87;;;9.17;;
17921;SDS011;9086;50.966;3.144;2023-01-28T12:42:55;9.33;;;8.33;;
17921;SDS011;9086;50.966;3.144;2023-01-28T12:45:32;9.37;;;8.37;;
17921;SDS011;9086;50.966;3.144;2023-01-28T12:48:05;13.17;;;9.57;;
17921;SDS011;9086;50.966;3.144;2023-01-28T12:50:35;10.33;;;9.23;;
17921;SDS011;9086;50.966;3.144;2023-01-28T12:53:08;9.93;;;8.40;;
17921;SDS011;9086;50.966;3.144;2023-01-28T12:55:40;10.80;;;8.60;;
17921;SDS011;9086;50.966;3.144;2023-01-28T12:58:14;7.97;;;7.17;;
17921;SDS011;9086;50.966;3.144;2023-01-28T13:00:44;7.17;;;6.03;;
17921;SDS011;9086;50.966;3.144;2023-01-28T13:03:24;8.40;;;7.00;;
17921;SDS011;9086;50.966;3.144;2023-01-28T13:05:53;10.07;;;7.60;;
17921;SDS011;9086;50.966;3.144;2023-01-28T13:08:24;7.83;;;7.03;;
17921;SDS011;9086;50.966;3.144;2023-01-28T13:10:50;9.27;;;6.83;;
17921;SDS011;9086;50.966;3.144;2023-01-28T13:13:35;7.50;;;6.00;;
17921;SDS011;9086;50.966;3.144;2023-01-28T13:16:03;7.03;;;6.27;;
17921;SDS011;9086;50.966;3.144;2023-01-28T13:20:58;7.17;;;5.80;;
17921;SDS011;9086;50.966;3.144;2023-01-28T13:23:35;6.97;;;4.90;;
17921;SDS011;9086;50.966;3.144;2023-01-28T13:28:35;7.20;;;6.13;;
17921;SDS011;9086;50.966;3.144;2023-01-28T13:31:02;10.23;;;7.33;;
17921;SDS011;9086;50.966;3.144;2023-01-28T13:33:33;6.60;;;5.60;;
17921;SDS011;9086;50.966;3.144;2023-01-28T13:36:01;6.10;;;5.43;;
17921;SDS011;9086;50.966;3.144;2023-01-28T13:38:27;8.47;;;6.50;;
17921;SDS011;9086;50.966;3.144;2023-01-28T13:40:56;7.50;;;6.70;;
17921;SDS011;9086;50.966;3.144;2023-01-28T13:46:00;7.07;;;6.37;;
17921;SDS011;9086;50.966;3.144;2023-01-28T13:48:40;7.57;;;6.40;;
17921;SDS011;9086;50.966;3.144;2023-01-28T13:51:24;10.57;;;7.17;;
17921;SDS011;9086;50.966;3.144;2023-01-28T13:54:02;6.77;;;5.67;;
17921;SDS011;9086;50.966;3.144;2023-01-28T13:56:40;7.20;;;6.37;;
17921;SDS011;9086;50.966;3.144;2023-01-28T14:01:40;9.27;;;6.57;;
17921;SDS011;9086;50.966;3.144;2023-01-28T14:04:29;8.67;;;6.40;;
17921;SDS011;9086;50.966;3.144;2023-01-28T14:07:09;8.70;;;6.00;;
17921;SDS011;9086;50.966;3.144;2023-01-28T14:12:21;7.27;;;6.10;;
17921;SDS011;9086;50.966;3.144;2023-01-28T14:19:58;6.50;;;5.77;;
17921;SDS011;9086;50.966;3.144;2023-01-28T14:22:25;6.20;;;5.60;;
17921;SDS011;9086;50.966;3.144;2023-01-28T14:24:51;7.13;;;5.23;;
17921;SDS011;9086;50.966;3.144;2023-01-28T14:32:14;7.77;;;5.13;;
17921;SDS011;9086;50.966;3.144;2023-01-28T14:34:41;6.20;;;4.97;;
17921;SDS011;9086;50.966;3.144;2023-01-28T14:37:17;5.53;;;4.63;;
17921;SDS011;9086;50.966;3.144;2023-01-28T14:39:50;7.20;;;4.60;;
17921;SDS011;9086;50.966;3.144;2023-01-28T14:44:47;5.23;;;4.53;;
17921;SDS011;9086;50.966;3.144;2023-01-28T14:50:02;4.73;;;4.30;;
17921;SDS011;9086;50.966;3.144;2023-01-28T14:55:02;4.47;;;3.43;;
17921;SDS011;9086;50.966;3.144;2023-01-28T14:57:36;4.90;;;3.43;;
17921;SDS011;9086;50.966;3.144;2023-01-28T15:00:15;4.00;;;3.60;;
17921;SDS011;9086;50.966;3.144;2023-01-28T15:02:42;7.27;;;4.37;;
17921;SDS011;9086;50.966;3.144;2023-01-28T15:05:17;4.50;;;3.97;;
17921;SDS011;9086;50.966;3.144;2023-01-28T15:07:44;5.67;;;3.77;;
17921;SDS011;9086;50.966;3.144;2023-01-28T15:10:20;5.73;;;4.47;;
17921;SDS011;9086;50.966;3.144;2023-01-28T15:12:56;4.30;;;3.83;;
17921;SDS011;9086;50.966;3.144;2023-01-28T15:17:50;6.70;;;4.80;;
17921;SDS011;9086;50.966;3.144;2023-01-28T15:20:17;4.30;;;3.87;;
17921;SDS011;9086;50.966;3.144;2023-01-28T15:22:44;4.50;;;4.10;;
17921;SDS011;9086;50.966;3.144;2023-01-28T15:25:20;4.27;;;3.87;;
17921;SDS011;9086;50.966;3.144;2023-01-28T15:27:46;7.20;;;5.83;;
17921;SDS011;9086;50.966;3.144;2023-01-28T15:30:19;4.67;;;4.20;;
17921;SDS011;9086;50.966;3.144;2023-01-28T15:32:55;4.43;;;4.03;;
17921;SDS011;9086;50.966;3.144;2023-01-28T15:35:21;6.13;;;4.93;;
17921;SDS011;9086;50.966;3.144;2023-01-28T15:37:47;6.10;;;4.90;;
17921;SDS011;9086;50.966;3.144;2023-01-28T15:40:16;7.03;;;6.33;;
17921;SDS011;9086;50.966;3.144;2023-01-28T15:42:45;6.23;;;5.40;;
17921;SDS011;9086;50.966;3.144;2023-01-28T15:45:15;6.67;;;5.00;;
17921;SDS011;9086;50.966;3.144;2023-01-28T15:47:41;5.53;;;5.00;;
17921;SDS011;9086;50.966;3.144;2023-01-28T15:50:07;6.73;;;4.67;;
17921;SDS011;9086;50.966;3.144;2023-01-28T15:52:40;6.47;;;5.20;;
17921;SDS011;9086;50.966;3.144;2023-01-28T15:55:26;5.00;;;4.17;;
17921;SDS011;9086;50.966;3.144;2023-01-28T15:57:53;6.37;;;5.00;;
17921;SDS011;9086;50.966;3.144;2023-01-28T16:00:19;7.53;;;5.77;;
17921;SDS011;9086;50.966;3.144;2023-01-28T16:02:47;6.93;;;6.07;;
17921;SDS011;9086;50.966;3.144;2023-01-28T16:05:22;8.80;;;6.27;;
17921;SDS011;9086;50.966;3.144;2023-01-28T16:07:48;7.47;;;6.07;;
17921;SDS011;9086;50.966;3.144;2023-01-28T16:10:18;6.67;;;5.27;;
17921;SDS011;9086;50.966;3.144;2023-01-28T16:12:51;8.93;;;6.27;;
17921;SDS011;9086;50.966;3.144;2023-01-28T16:15:18;7.10;;;5.63;;
17921;SDS011;9086;50.966;3.144;2023-01-28T16:17:49;7.80;;;6.17;;
17921;SDS011;9086;50.966;3.144;2023-01-28T16:20:20;6.57;;;5.73;;
17921;SDS011;9086;50.966;3.144;2023-01-28T16:22:46;6.20;;;5.60;;
17921;SDS011;9086;50.966;3.144;2023-01-28T16:27:51;9.13;;;6.17;;
17921;SDS011;9086;50.966;3.144;2023-01-28T16:30:17;8.10;;;6.03;;
17921;SDS011;9086;50.966;3.144;2023-01-28T16:32:43;7.80;;;5.50;;
17921;SDS011;9086;50.966;3.144;2023-01-28T16:35:19;9.80;;;6.27;;
17921;SDS011;9086;50.966;3.144;2023-01-28T16:37:46;6.70;;;5.80;;
17921;SDS011;9086;50.966;3.144;2023-01-28T16:40:13;9.33;;;6.40;;
17921;SDS011;9086;50.966;3.144;2023-01-28T16:42:40;7.80;;;6.63;;
17921;SDS011;9086;50.966;3.144;2023-01-28T16:45:06;8.30;;;6.80;;
17921;SDS011;9086;50.966;3.144;2023-01-28T16:47:32;7.63;;;6.87;;
17921;SDS011;9086;50.966;3.144;2023-01-28T16:49:58;7.80;;;6.97;;
17921;SDS011;9086;50.966;3.144;2023-01-28T16:52:24;8.37;;;7.50;;
17921;SDS011;9086;50.966;3.144;2023-01-28T16:54:50;9.60;;;8.37;;
17921;SDS011;9086;50.966;3.144;2023-01-28T16:57:17;9.00;;;7.20;;
17921;SDS011;9086;50.966;3.144;2023-01-28T16:59:44;10.53;;;7.77;;
17921;SDS011;9086;50.966;3.144;2023-01-28T17:02:10;11.90;;;10.17;;
17921;SDS011;9086;50.966;3.144;2023-01-28T17:04:37;10.47;;;9.33;;